Time;durP1;ratioP1;P1;durP2;ratioP2;P2;SDS_P1;SDS_P2;PMS_P1;PMS_P2;Temp;Humidity;BMP_temperature;BMP_pressure;BME280_temperature;BME280_humidity;BME280_pressure;Samples;Min_cycle;Max_cycle;Signal;HPM_P1;HPM_P2
2023/03/12 00:01:33;;;;;;;1.30;0.90;;;15.60;56.00;;;;;;4988469;28;47451;-69
2023/03/12 00:04:02;;;;;;;1.35;0.60;;;15.60;55.90;;;;;;4988538;28;45167;-69
2023/03/12 00:06:28;;;;;;;1.02;0.70;;;15.60;56.00;;;;;;4988995;28;45232;-69
2023/03/12 00:08:57;;;;;;;1.17;0.60;;;15.60;56.10;;;;;;4988644;28;45438;-69
2023/03/12 00:11:24;;;;;;;1.83;0.88;;;15.60;55.90;;;;;;4988329;28;46647;-69
2023/03/12 00:13:52;;;;;;;1.83;0.77;;;15.60;55.80;;;;;;4988679;28;45180;-68
2023/03/12 00:16:19;;;;;;;2.17;0.68;;;15.60;57.40;;;;;;4988609;28;45407;-69
2023/03/12 00:18:48;;;;;;;1.70;0.90;;;15.60;55.70;;;;;;4988691;28;45540;-69
2023/03/12 00:21:16;;;;;;;1.08;0.68;;;15.60;55.40;;;;;;4988434;28;46757;-69
2023/03/12 00:23:43;;;;;;;1.77;0.82;;;15.60;55.10;;;;;;4988300;28;45406;-69
2023/03/12 00:26:13;;;;;;;1.65;0.90;;;15.60;55.00;;;;;;4988578;28;45280;-69
2023/03/12 00:28:40;;;;;;;0.85;0.65;;;15.60;54.70;;;;;;4988611;28;45295;-69
2023/03/12 00:31:16;;;;;;;1.55;0.82;;;15.60;54.80;;;;;;4988645;28;45374;-69
2023/03/12 00:33:42;;;;;;;2.05;0.90;;;15.60;54.80;;;;;;5010488;28;45386;-69
2023/03/12 00:36:10;;;;;;;1.55;0.85;;;15.60;55.00;;;;;;5008307;28;45224;-69
2023/03/12 00:38:36;;;;;;;1.15;0.80;;;15.60;55.30;;;;;;5008146;28;45243;-69
2023/03/12 00:41:03;;;;;;;1.88;0.93;;;15.50;55.40;;;;;;5007542;28;47557;-69
2023/03/12 00:43:32;;;;;;;1.20;0.88;;;15.60;55.40;;;;;;5007880;28;45337;-69
2023/03/12 00:45:58;;;;;;;1.38;0.90;;;15.60;55.40;;;;;;5008037;28;45244;-69
2023/03/12 00:48:25;;;;;;;2.35;0.90;;;15.60;55.30;;;;;;5007443;28;45268;-69
2023/03/12 00:50:52;;;;;;;2.20;0.95;;;15.50;54.80;;;;;;5007699;28;46261;-69
2023/03/12 00:53:19;;;;;;;1.65;1.00;;;15.50;55.00;;;;;;5007708;28;45131;-69
2023/03/12 00:55:46;;;;;;;1.65;0.95;;;15.60;55.50;;;;;;5007977;28;45224;-69
2023/03/12 00:58:13;;;;;;;2.53;0.93;;;15.60;55.50;;;;;;5007662;28;45379;-69
2023/03/12 01:00:41;;;;;;;1.45;1.00;;;15.60;55.40;;;;;;5007554;28;45475;-69
2023/03/12 01:03:08;;;;;;;1.27;0.77;;;15.60;55.80;;;;;;5007813;28;45321;-69
2023/03/12 01:05:36;;;;;;;0.88;0.80;;;15.60;55.60;;;;;;5007732;28;45235;-69
2023/03/12 01:08:04;;;;;;;1.35;0.90;;;15.60;55.50;;;;;;5007732;28;45574;-69
2023/03/12 01:10:31;;;;;;;2.42;0.93;;;15.60;55.30;;;;;;5007536;28;45759;-69
2023/03/12 01:12:57;;;;;;;1.50;0.93;;;15.70;55.50;;;;;;5007309;28;45097;-69
2023/03/12 01:15:25;;;;;;;1.67;0.80;;;15.60;55.50;;;;;;5007751;28;45153;-69
2023/03/12 01:17:53;;;;;;;1.23;0.80;;;15.60;55.10;;;;;;5007381;28;45344;-69
2023/03/12 01:20:21;;;;;;;2.03;1.10;;;15.60;54.40;;;;;;5007411;28;46229;-69
2023/03/12 01:22:49;;;;;;;2.05;1.05;;;15.60;54.40;;;;;;5007106;28;45168;-69
2023/03/12 01:25:15;;;;;;;2.30;1.00;;;15.60;54.30;;;;;;5002144;28;45283;-69
2023/03/12 01:27:42;;;;;;;1.58;0.85;;;15.60;54.50;;;;;;4987770;28;45516;-69
2023/03/12 01:30:11;;;;;;;2.20;0.88;;;15.60;54.20;;;;;;4987675;28;46597;-69
2023/03/12 01:32:38;;;;;;;1.30;0.80;;;15.60;54.50;;;;;;4987303;28;45157;-69
2023/03/12 01:35:07;;;;;;;1.50;1.00;;;15.60;54.00;;;;;;4987712;28;45141;-69
2023/03/12 01:37:34;;;;;;;1.30;0.98;;;15.60;53.80;;;;;;4987505;28;45370;-69
2023/03/12 01:40:01;;;;;;;1.25;0.95;;;15.60;54.00;;;;;;4987052;28;45426;-69
2023/03/12 01:42:27;;;;;;;1.08;0.65;;;15.60;54.10;;;;;;4984466;28;45206;-69
2023/03/12 01:44:56;;;;;;;1.63;1.00;;;15.60;53.90;;;;;;4987575;28;45161;-69
2023/03/12 01:47:26;;;;;;;2.13;1.02;;;15.60;53.60;;;;;;4987587;28;45265;-69
2023/03/12 01:49:55;;;;;;;1.50;0.98;;;15.60;54.00;;;;;;4987244;28;46282;-69
2023/03/12 01:52:26;;;;;;;2.22;0.90;;;15.50;54.00;;;;;;4986977;28;45601;-69
2023/03/12 01:54:58;;;;;;;1.70;1.00;;;15.60;54.60;;;;;;4987719;28;45113;-69
2023/03/12 01:57:31;;;;;;;1.25;0.93;;;15.60;54.30;;;;;;4987018;28;45489;-69
2023/03/12 02:00:00;;;;;;;1.45;0.85;;;15.60;54.40;;;;;;4986979;28;46573;-69
2023/03/12 02:02:28;;;;;;;1.83;0.90;;;15.60;54.60;;;;;;4987140;28;45157;-69
2023/03/12 02:05:03;;;;;;;1.85;1.00;;;15.60;54.40;;;;;;4987252;28;45236;-69
2023/03/12 02:07:33;;;;;;;2.25;1.35;;;15.60;54.50;;;;;;4987660;28;45225;-69
2023/03/12 02:10:00;;;;;;;3.38;1.23;;;15.60;54.60;;;;;;4987189;28;47619;-69
2023/03/12 02:12:27;;;;;;;2.60;1.45;;;15.60;54.70;;;;;;4986697;28;45082;-69
2023/03/12 02:14:54;;;;;;;2.72;1.35;;;15.60;54.80;;;;;;4986882;28;45217;-69
2023/03/12 02:17:21;;;;;;;2.45;1.38;;;15.70;54.40;;;;;;4987368;28;45257;-69
2023/03/12 02:19:54;;;;;;;1.77;1.20;;;15.60;54.10;;;;;;4986951;28;47271;-69
2023/03/12 02:22:21;;;;;;;1.50;1.10;;;15.60;54.00;;;;;;4987129;28;46003;-69
2023/03/12 02:24:57;;;;;;;2.58;1.40;;;15.60;53.90;;;;;;4987391;28;45357;-69
2023/03/12 02:27:25;;;;;;;3.13;1.30;;;15.60;53.90;;;;;;4986847;28;45401;-69
2023/03/12 02:29:52;;;;;;;5.72;1.38;;;15.60;53.90;;;;;;4986336;28;46400;-69
2023/03/12 02:32:24;;;;;;;2.75;1.20;;;15.60;53.60;;;;;;4986861;28;45162;-69
2023/03/12 02:34:50;;;;;;;1.80;1.00;;;15.60;53.40;;;;;;4987069;28;45269;-69
2023/03/12 02:37:18;;;;;;;2.45;1.10;;;15.60;53.40;;;;;;4986779;28;45074;-69
2023/03/12 02:39:50;;;;;;;1.50;1.10;;;15.60;53.70;;;;;;4985720;28;46317;-69
2023/03/12 02:42:17;;;;;;;1.88;1.10;;;15.60;53.50;;;;;;4986929;28;45126;-69
2023/03/12 02:44:45;;;;;;;1.90;1.40;;;15.60;53.30;;;;;;4986751;28;45305;-69
2023/03/12 02:47:12;;;;;;;2.05;0.85;;;15.60;53.20;;;;;;4986670;28;45463;-69
2023/03/12 02:49:38;;;;;;;1.80;1.00;;;15.60;53.10;;;;;;4986391;28;45229;-69
2023/03/12 02:52:05;;;;;;;1.30;0.82;;;15.60;53.10;;;;;;4986247;28;45190;-69
2023/03/12 02:54:32;;;;;;;1.52;0.88;;;15.50;53.10;;;;;;4986425;28;45244;-69
2023/03/12 02:56:59;;;;;;;1.58;0.95;;;15.60;53.50;;;;;;4986300;28;45288;-69
2023/03/12 02:59:26;;;;;;;2.45;0.90;;;15.60;53.20;;;;;;4986254;28;45449;-69
2023/03/12 03:01:55;;;;;;;2.25;1.10;;;15.60;53.40;;;;;;4986142;28;45248;-69
2023/03/12 03:04:23;;;;;;;1.73;0.90;;;15.60;53.10;;;;;;4986537;28;45123;-69
2023/03/12 03:06:50;;;;;;;2.55;1.27;;;15.60;53.90;;;;;;4986822;28;45109;-69
2023/03/12 03:09:18;;;;;;;1.42;0.93;;;15.60;53.60;;;;;;4986130;28;45340;-69
2023/03/12 03:11:44;;;;;;;1.60;0.90;;;15.60;53.50;;;;;;4987540;28;45307;-69
2023/03/12 03:14:11;;;;;;;2.40;0.90;;;15.60;53.40;;;;;;4989711;28;45189;-69
2023/03/12 03:17:31;;;;;;;1.95;0.88;;;15.60;53.40;;;;;;4989591;28;45445;-69
2023/03/12 03:19:59;;;;;;;1.58;0.80;;;15.60;53.40;;;;;;4989420;28;46621;-69
2023/03/12 03:22:25;;;;;;;2.47;1.08;;;15.60;53.10;;;;;;4989637;28;45164;-69
2023/03/12 03:24:53;;;;;;;1.08;0.70;;;15.60;52.90;;;;;;4989531;28;45109;-69
2023/03/12 03:27:20;;;;;;;2.28;1.13;;;15.60;52.90;;;;;;4989764;28;45362;-69
2023/03/12 03:29:47;;;;;;;2.08;0.90;;;15.60;52.60;;;;;;4989561;28;45337;-69
2023/03/12 03:32:13;;;;;;;2.35;1.00;;;15.60;52.50;;;;;;4989317;28;45358;-69
2023/03/12 03:34:40;;;;;;;1.52;0.63;;;15.60;52.60;;;;;;4989398;28;45331;-69
2023/03/12 03:37:08;;;;;;;1.83;0.90;;;15.50;52.50;;;;;;4989794;28;45141;-69
2023/03/12 03:39:35;;;;;;;0.90;0.60;;;15.60;52.60;;;;;;4988431;28;45342;-69
2023/03/12 03:42:02;;;;;;;2.20;0.90;;;15.60;52.50;;;;;;4989177;28;45129;-69
2023/03/12 03:44:29;;;;;;;0.95;0.75;;;15.60;52.40;;;;;;4989593;28;45241;-69
2023/03/12 03:46:56;;;;;;;1.15;0.73;;;15.60;52.40;;;;;;4989463;28;45211;-69
2023/03/12 03:49:23;;;;;;;2.15;0.68;;;15.60;52.40;;;;;;4989263;28;45503;-69
2023/03/12 03:51:50;;;;;;;1.52;0.85;;;15.60;52.70;;;;;;4988939;28;45150;-69
2023/03/12 03:54:19;;;;;;;0.98;0.80;;;15.60;52.30;;;;;;4989047;28;45139;-69
2023/03/12 03:56:46;;;;;;;3.50;0.77;;;15.60;52.40;;;;;;4989369;28;45302;-69
2023/03/12 03:59:13;;;;;;;1.08;0.80;;;15.60;52.70;;;;;;4988697;28;46639;-69
2023/03/12 04:01:40;;;;;;;1.60;0.80;;;15.60;52.70;;;;;;4989277;28;45082;-69
2023/03/12 04:04:07;;;;;;;2.22;0.77;;;15.60;52.90;;;;;;4989474;28;45299;-69
2023/03/12 04:06:34;;;;;;;1.58;0.75;;;15.60;52.50;;;;;;4988969;28;45387;-69
2023/03/12 04:09:01;;;;;;;2.33;0.80;;;15.60;52.70;;;;;;4988929;28;46468;-69
2023/03/12 04:11:29;;;;;;;1.35;0.73;;;15.60;52.70;;;;;;4988640;28;45736;-69
2023/03/12 04:13:57;;;;;;;2.05;0.80;;;15.60;52.80;;;;;;4988657;28;45168;-69
2023/03/12 04:16:24;;;;;;;2.25;0.77;;;15.60;52.90;;;;;;4988664;28;45585;-69
2023/03/12 04:18:51;;;;;;;1.05;0.77;;;15.70;52.80;;;;;;4988369;28;46686;-69
2023/03/12 04:21:18;;;;;;;2.08;0.70;;;15.60;52.50;;;;;;4988861;28;45957;-69
2023/03/12 04:23:44;;;;;;;1.70;0.73;;;15.60;52.30;;;;;;4987538;28;45145;-69
2023/03/12 04:26:11;;;;;;;0.50;0.45;;;15.60;52.10;;;;;;4988904;28;45582;-69
2023/03/12 04:28:39;;;;;;;1.05;0.50;;;15.60;52.20;;;;;;4988645;28;46433;-69
2023/03/12 04:31:08;;;;;;;2.20;0.82;;;15.60;52.10;;;;;;4988478;28;45367;-69
2023/03/12 04:33:36;;;;;;;0.70;0.55;;;15.60;52.00;;;;;;4988524;28;45116;-69
2023/03/12 04:36:04;;;;;;;0.90;0.70;;;15.60;52.20;;;;;;4988626;28;45380;-69
2023/03/12 04:38:31;;;;;;;1.17;0.90;;;15.50;51.80;;;;;;4987956;28;46293;-69
2023/03/12 04:40:59;;;;;;;1.10;0.50;;;15.50;51.80;;;;;;4988105;28;46026;-69
2023/03/12 04:43:25;;;;;;;1.23;0.73;;;15.50;52.00;;;;;;4988273;28;45085;-69
2023/03/12 04:45:54;;;;;;;1.33;0.60;;;15.50;51.80;;;;;;4988344;28;45605;-69
2023/03/12 04:48:21;;;;;;;1.10;0.57;;;15.50;51.80;;;;;;4988219;28;45243;-69
2023/03/12 04:50:47;;;;;;;1.17;0.43;;;15.50;51.70;;;;;;4988258;28;45323;-69
2023/03/12 04:53:14;;;;;;;1.98;0.60;;;15.50;51.60;;;;;;4988086;28;45304;-69
2023/03/12 04:55:41;;;;;;;1.13;0.70;;;15.50;52.10;;;;;;4988169;28;45274;-69
2023/03/12 04:58:08;;;;;;;2.58;0.65;;;15.60;52.50;;;;;;4987881;28;45316;-69
2023/03/12 05:00:35;;;;;;;2.70;0.80;;;15.60;52.30;;;;;;4987804;28;45191;-69
2023/03/12 05:03:04;;;;;;;2.58;0.73;;;15.60;52.50;;;;;;4988243;28;45160;-69
2023/03/12 05:05:31;;;;;;;1.25;0.80;;;15.60;52.50;;;;;;4988350;28;45380;-69
2023/03/12 05:07:58;;;;;;;0.90;0.50;;;15.60;52.40;;;;;;4987942;28;45298;-69
2023/03/12 05:10:25;;;;;;;0.77;0.63;;;15.60;52.50;;;;;;4988069;28;45247;-69
2023/03/12 05:12:52;;;;;;;1.27;0.60;;;15.60;52.60;;;;;;4988145;28;45326;-69
2023/03/12 05:15:19;;;;;;;1.92;0.77;;;15.60;52.20;;;;;;4988123;28;45133;-69
2023/03/12 05:17:46;;;;;;;0.75;0.50;;;15.60;51.90;;;;;;4987772;28;45751;-69
2023/03/12 05:20:15;;;;;;;2.53;0.60;;;15.60;51.20;;;;;;4987747;28;45229;-69
2023/03/12 05:22:43;;;;;;;1.10;0.70;;;15.50;50.10;;;;;;4988090;28;45243;-69
2023/03/12 05:25:11;;;;;;;0.95;0.60;;;15.50;49.80;;;;;;4987925;28;45418;-70
2023/03/12 05:27:38;;;;;;;0.65;0.52;;;15.50;49.80;;;;;;4987762;28;47547;-69
2023/03/12 05:30:06;;;;;;;0.47;0.47;;;15.50;49.80;;;;;;4987853;28;45325;-69
2023/03/12 05:32:33;;;;;;;0.57;0.43;;;15.50;49.80;;;;;;4987928;28;45203;-69
2023/03/12 05:35:00;;;;;;;0.88;0.40;;;15.50;49.80;;;;;;4987328;28;45379;-69
2023/03/12 05:37:28;;;;;;;1.70;0.60;;;15.50;49.80;;;;;;4987310;28;46599;-69
2023/03/12 05:39:55;;;;;;;0.60;0.50;;;15.40;49.80;;;;;;4987064;28;45910;-70
2023/03/12 05:42:24;;;;;;;2.75;0.65;;;15.40;49.70;;;;;;4987384;28;45222;-69
2023/03/12 05:44:52;;;;;;;0.70;0.55;;;15.40;49.70;;;;;;4987331;28;45086;-69
2023/03/12 05:47:19;;;;;;;0.82;0.50;;;15.50;49.80;;;;;;4987326;28;46993;-69
2023/03/12 05:49:46;;;;;;;1.25;0.60;;;15.40;49.70;;;;;;4987239;28;45790;-69
2023/03/12 05:52:13;;;;;;;0.90;0.40;;;15.40;49.70;;;;;;4987613;28;45208;-69
2023/03/12 05:54:41;;;;;;;1.27;0.73;;;15.40;49.70;;;;;;4987202;28;45078;-69
2023/03/12 05:57:08;;;;;;;1.45;0.50;;;15.40;49.70;;;;;;4986982;28;46393;-69
2023/03/12 05:59:35;;;;;;;1.17;0.52;;;15.50;49.80;;;;;;4986905;28;46228;-69
2023/03/12 06:02:02;;;;;;;2.85;0.50;;;15.50;49.80;;;;;;4987389;28;45216;-69
2023/03/12 06:04:29;;;;;;;1.10;0.63;;;15.40;49.70;;;;;;4987812;28;45350;-70
2023/03/12 06:06:56;;;;;;;1.35;0.50;;;15.40;49.70;;;;;;4986832;28;45598;-69
2023/03/12 06:09:23;;;;;;;1.65;0.68;;;15.50;49.80;;;;;;4987111;28;45763;-69
2023/03/12 06:11:51;;;;;;;1.35;0.60;;;15.50;49.80;;;;;;4986834;28;45216;-69
2023/03/12 06:14:17;;;;;;;0.45;0.45;;;15.50;49.80;;;;;;4986991;28;45382;-69
2023/03/12 06:16:44;;;;;;;1.00;0.52;;;15.50;49.80;;;;;;4986627;28;47334;-69
2023/03/12 06:19:12;;;;;;;1.67;0.50;;;15.50;49.80;;;;;;4986679;28;46050;-69
2023/03/12 06:21:39;;;;;;;1.00;0.60;;;15.50;49.80;;;;;;4987074;28;45220;-69
2023/03/12 06:24:07;;;;;;;1.17;0.60;;;15.50;49.80;;;;;;4986644;28;45469;-69
2023/03/12 06:26:34;;;;;;;1.83;0.65;;;15.50;49.80;;;;;;4986425;28;46591;-69
2023/03/12 06:29:02;;;;;;;1.95;0.57;;;15.50;49.80;;;;;;4986734;28;45295;-69
2023/03/12 06:31:29;;;;;;;0.98;0.50;;;15.50;55.00;;;;;;4986557;28;45195;-69
2023/03/12 06:33:56;;;;;;;1.15;0.50;;;15.50;53.40;;;;;;4986861;28;45196;-69
2023/03/12 06:36:23;;;;;;;0.90;0.35;;;15.50;51.70;;;;;;4986711;28;46614;-69
2023/03/12 06:38:50;;;;;;;0.47;0.47;;;15.50;51.00;;;;;;4986434;28;45318;-69
2023/03/12 06:41:19;;;;;;;1.50;0.68;;;15.50;50.40;;;;;;4986403;28;45430;-69
2023/03/12 06:43:46;;;;;;;1.73;0.82;;;15.50;50.30;;;;;;4986734;28;45343;-69
2023/03/12 06:46:16;;;;;;;0.60;0.40;;;15.50;50.00;;;;;;4985427;28;47474;-70
2023/03/12 06:48:45;;;;;;;1.20;0.50;;;15.50;49.80;;;;;;4986487;28;45930;-69
2023/03/12 06:51:14;;;;;;;1.42;0.50;;;15.40;49.70;;;;;;4986351;28;45268;-69
2023/03/12 06:53:40;;;;;;;2.17;0.45;;;15.40;49.70;;;;;;4986892;28;45198;-69
2023/03/12 06:56:07;;;;;;;0.70;0.50;;;15.40;49.70;;;;;;4986242;28;47409;-70
2023/03/12 06:58:34;;;;;;;0.70;0.43;;;15.40;49.70;;;;;;4986074;28;45201;-69
2023/03/12 07:01:01;;;;;;;0.95;0.50;;;15.50;49.80;;;;;;4986159;28;45208;-69
2023/03/12 07:03:29;;;;;;;1.10;0.47;;;15.50;49.80;;;;;;4986121;28;45276;-69
2023/03/12 07:05:58;;;;;;;1.48;0.70;;;15.50;49.80;;;;;;4986204;28;45245;-70
2023/03/12 07:08:28;;;;;;;0.57;0.40;;;15.50;49.80;;;;;;4985918;28;45195;-70
2023/03/12 07:10:55;;;;;;;1.45;0.60;;;15.50;49.80;;;;;;4986234;28;45237;-69
2023/03/12 07:13:22;;;;;;;1.60;0.50;;;15.50;49.80;;;;;;4985642;28;45086;-69
2023/03/12 07:15:49;;;;;;;1.40;0.60;;;15.50;49.80;;;;;;4985586;28;46878;-69
2023/03/12 07:18:16;;;;;;;1.88;0.70;;;15.50;49.80;;;;;;4985975;28;46018;-69
2023/03/12 07:20:46;;;;;;;1.33;0.52;;;15.50;49.80;;;;;;4985949;28;45227;-69
2023/03/12 07:23:13;;;;;;;2.65;0.85;;;15.50;49.30;;;;;;4985987;28;45733;-70
2023/03/12 07:25:42;;;;;;;0.47;0.35;;;15.50;49.60;;;;;;4986272;28;45371;-69
2023/03/12 07:28:10;;;;;;;1.83;0.93;;;15.50;49.80;;;;;;4982580;28;45542;-70
2023/03/12 07:30:37;;;;;;;1.95;0.63;;;15.50;51.80;;;;;;4986211;28;45176;-69
2023/03/12 07:33:04;;;;;;;1.00;0.60;;;15.50;49.80;;;;;;4986349;28;45539;-70
2023/03/12 07:35:31;;;;;;;0.82;0.52;;;15.50;49.80;;;;;;4985625;28;46276;-69
2023/03/12 07:38:00;;;;;;;1.73;0.50;;;15.50;49.80;;;;;;4985949;28;45196;-69
2023/03/12 07:40:27;;;;;;;1.33;0.55;;;15.50;49.80;;;;;;4985513;28;45137;-69
2023/03/12 07:42:54;;;;;;;0.73;0.57;;;15.50;49.80;;;;;;4985887;28;45458;-69
2023/03/12 07:45:21;;;;;;;0.63;0.50;;;15.50;49.80;;;;;;4985396;28;46554;-70
2023/03/12 07:47:48;;;;;;;2.33;0.52;;;15.50;49.80;;;;;;4985701;28;45169;-70
2023/03/12 07:50:16;;;;;;;1.00;0.70;;;15.50;49.80;;;;;;4985669;28;45245;-69
2023/03/12 07:52:43;;;;;;;0.95;0.60;;;15.50;49.80;;;;;;4985452;28;45501;-69
2023/03/12 07:55:12;;;;;;;2.38;0.57;;;15.50;49.40;;;;;;4985520;28;45463;-69
2023/03/12 07:57:38;;;;;;;0.98;0.55;;;15.50;49.80;;;;;;4986878;28;45156;-70
2023/03/12 08:00:09;;;;;;;1.67;0.60;;;15.50;49.20;;;;;;4988846;28;45248;-69
2023/03/12 08:02:36;;;;;;;1.13;0.55;;;15.50;49.40;;;;;;4991890;28;45105;-70
2023/03/12 08:05:03;;;;;;;1.33;0.60;;;15.50;49.40;;;;;;4989102;28;48078;-70
2023/03/12 08:07:31;;;;;;;1.77;0.70;;;15.40;49.20;;;;;;4988495;28;45160;-69
2023/03/12 08:09:58;;;;;;;1.13;0.50;;;15.40;49.40;;;;;;4988798;28;45200;-69
2023/03/12 08:12:26;;;;;;;1.38;0.68;;;15.40;49.40;;;;;;4988776;28;45081;-69
2023/03/12 08:14:53;;;;;;;0.95;0.50;;;15.40;49.70;;;;;;4988636;28;45247;-70
2023/03/12 08:17:20;;;;;;;1.50;0.68;;;15.40;49.70;;;;;;4989003;28;45292;-70
2023/03/12 08:19:47;;;;;;;1.35;0.60;;;15.40;49.70;;;;;;4988821;28;45077;-70
2023/03/12 08:22:14;;;;;;;0.95;0.43;;;15.40;49.70;;;;;;4988441;28;45438;-70
2023/03/12 08:24:41;;;;;;;3.20;0.70;;;15.40;49.70;;;;;;4989246;28;45681;-69
2023/03/12 08:27:08;;;;;;;1.30;0.40;;;15.50;49.80;;;;;;4988344;28;45222;-69
2023/03/12 08:29:36;;;;;;;0.88;0.57;;;15.50;49.80;;;;;;4988470;28;45231;-69
2023/03/12 08:32:03;;;;;;;1.08;0.63;;;15.50;49.80;;;;;;4988430;28;45305;-69
2023/03/12 08:34:30;;;;;;;1.58;0.60;;;15.40;49.70;;;;;;4988309;28;47238;-69
2023/03/12 08:36:57;;;;;;;0.88;0.50;;;15.40;49.70;;;;;;4988096;28;45169;-70
2023/03/12 08:39:23;;;;;;;2.08;0.50;;;15.50;49.80;;;;;;4987816;28;45159;-70
2023/03/12 08:41:54;;;;;;;0.95;0.50;;;15.50;50.10;;;;;;4988279;28;45221;-69
2023/03/12 08:44:21;;;;;;;1.00;0.50;;;15.50;49.80;;;;;;4988154;28;45286;-69
2023/03/12 08:46:49;;;;;;;0.90;0.50;;;15.50;49.80;;;;;;4987990;28;45232;-69
2023/03/12 08:49:16;;;;;;;0.40;0.40;;;15.50;49.80;;;;;;4988156;28;45209;-69
2023/03/12 08:51:43;;;;;;;1.55;0.60;;;15.50;49.80;;;;;;4988112;28;45422;-69
2023/03/12 08:54:09;;;;;;;0.80;0.50;;;15.40;49.70;;;;;;4987954;28;45221;-69
2023/03/12 08:56:40;;;;;;;1.05;0.68;;;15.40;49.70;;;;;;4987713;28;45408;-69
2023/03/12 08:59:07;;;;;;;0.88;0.50;;;15.50;49.80;;;;;;4987914;28;45280;-69
2023/03/12 09:01:34;;;;;;;0.40;0.30;;;15.40;49.70;;;;;;4988472;28;45354;-69
2023/03/12 09:04:02;;;;;;;1.13;0.40;;;15.40;49.70;;;;;;4987567;28;45151;-69
2023/03/12 09:06:29;;;;;;;0.80;0.50;;;15.40;49.70;;;;;;4987531;28;45656;-69
2023/03/12 09:08:56;;;;;;;1.10;0.73;;;15.40;49.80;;;;;;4987109;28;45327;-69
2023/03/12 09:11:23;;;;;;;0.90;0.57;;;15.40;49.70;;;;;;4987793;28;45222;-69
2023/03/12 09:13:50;;;;;;;1.15;0.50;;;15.40;49.90;;;;;;4987339;28;45237;-69
2023/03/12 09:16:17;;;;;;;0.77;0.63;;;15.40;49.70;;;;;;4987412;28;45258;-69
2023/03/12 09:18:44;;;;;;;1.65;0.88;;;15.40;50.10;;;;;;4987798;28;45223;-69
2023/03/12 09:21:12;;;;;;;1.88;0.50;;;15.40;50.30;;;;;;4987754;28;45506;-69
2023/03/12 09:23:40;;;;;;;1.35;0.68;;;15.40;50.40;;;;;;4986530;28;47218;-69
2023/03/12 09:26:10;;;;;;;0.82;0.40;;;15.50;50.60;;;;;;4987536;28;45217;-69
2023/03/12 09:28:37;;;;;;;1.23;0.52;;;15.50;50.60;;;;;;4987790;28;45124;-69
2023/03/12 09:31:04;;;;;;;0.82;0.60;;;15.60;51.00;;;;;;4987876;28;45062;-69
2023/03/12 09:33:31;;;;;;;0.60;0.50;;;15.60;51.20;;;;;;4987381;28;45511;-69
2023/03/12 09:35:59;;;;;;;1.20;0.65;;;15.60;51.40;;;;;;4987622;28;45392;-69
2023/03/12 09:38:28;;;;;;;1.33;0.50;;;15.60;51.60;;;;;;4987965;28;45298;-69
2023/03/12 09:40:55;;;;;;;1.38;0.60;;;15.60;51.50;;;;;;4986934;28;45120;-69
2023/03/12 09:43:28;;;;;;;1.02;0.43;;;15.60;52.80;;;;;;4987757;28;45533;-69
2023/03/12 09:45:56;;;;;;;0.68;0.40;;;15.60;51.70;;;;;;4987176;28;45125;-69
2023/03/12 09:48:31;;;;;;;0.85;0.50;;;15.60;51.90;;;;;;4987491;28;45280;-69
2023/03/12 09:51:02;;;;;;;0.60;0.50;;;15.60;52.00;;;;;;4987293;28;45235;-69
2023/03/12 09:53:34;;;;;;;2.00;0.70;;;15.60;52.00;;;;;;4987021;28;47947;-69
2023/03/12 09:56:08;;;;;;;1.05;0.60;;;15.60;52.10;;;;;;4990250;28;45227;-69
2023/03/12 09:58:37;;;;;;;1.10;0.55;;;15.60;53.30;;;;;;4987809;28;45140;-69
2023/03/12 10:01:19;;;;;;;1.63;0.50;;;15.60;52.30;;;;;;4987222;28;45563;-69
2023/03/12 10:03:56;;;;;;;0.70;0.60;;;15.60;52.50;;;;;;4987192;28;46240;-69
2023/03/12 10:06:28;;;;;;;0.80;0.60;;;15.60;53.90;;;;;;4987051;28;45121;-69
2023/03/12 10:09:06;;;;;;;0.30;0.30;;;15.60;52.70;;;;;;4987591;28;45354;-69
2023/03/12 10:11:45;;;;;;;1.05;0.47;;;15.70;52.90;;;;;;4987301;28;45119;-69
2023/03/12 10:14:22;;;;;;;1.02;0.68;;;15.70;52.90;;;;;;4986911;28;45333;-69
2023/03/12 10:17:12;;;;;;;0.77;0.60;;;15.70;53.00;;;;;;4987015;28;45228;-69
2023/03/12 10:19:54;;;;;;;0.90;0.50;;;15.70;53.10;;;;;;4986819;28;45150;-69
2023/03/12 10:22:42;;;;;;;1.30;0.82;;;15.70;53.30;;;;;;4987306;28;45212;-69
2023/03/12 10:25:19;;;;;;;2.50;0.80;;;15.80;53.50;;;;;;4987161;28;45305;-69
2023/03/12 10:27:48;;;;;;;0.57;0.47;;;15.80;53.60;;;;;;4986617;28;45219;-69
2023/03/12 10:30:18;;;;;;;0.80;0.50;;;15.70;53.60;;;;;;4986932;28;45377;-69
2023/03/12 10:32:48;;;;;;;0.68;0.55;;;15.80;53.70;;;;;;4987257;28;45147;-69
2023/03/12 10:35:17;;;;;;;1.23;0.77;;;15.80;53.80;;;;;;4986611;28;45239;-69
2023/03/12 10:37:46;;;;;;;0.88;0.50;;;15.80;53.90;;;;;;4986656;28;45174;-69
2023/03/12 10:40:18;;;;;;;0.98;0.70;;;15.70;53.90;;;;;;4986385;28;45243;-69
2023/03/12 10:42:45;;;;;;;1.13;0.60;;;15.70;54.10;;;;;;4986920;28;45318;-69
2023/03/12 10:45:22;;;;;;;1.30;0.82;;;15.70;54.20;;;;;;4986564;28;46087;-69
2023/03/12 10:47:52;;;;;;;1.33;0.45;;;15.70;54.40;;;;;;4986774;28;45363;-69
2023/03/12 10:50:22;;;;;;;0.60;0.57;;;15.70;54.50;;;;;;4986360;28;45240;-69
2023/03/12 10:52:50;;;;;;;0.80;0.60;;;15.70;54.80;;;;;;4987054;28;45046;-69
2023/03/12 10:55:25;;;;;;;0.50;0.50;;;15.70;55.10;;;;;;4986329;28;45222;-69
2023/03/12 10:57:52;;;;;;;0.70;0.60;;;15.70;55.60;;;;;;4986453;28;45330;-69
2023/03/12 11:00:22;;;;;;;1.23;0.70;;;15.70;55.90;;;;;;4986777;28;45264;-69
2023/03/12 11:02:58;;;;;;;0.50;0.50;;;15.70;56.00;;;;;;4986567;28;45196;-70
2023/03/12 11:05:28;;;;;;;0.75;0.50;;;15.70;56.50;;;;;;4986175;28;45328;-69
2023/03/12 11:07:55;;;;;;;0.75;0.60;;;15.70;56.70;;;;;;4986570;28;45296;-69
2023/03/12 11:10:27;;;;;;;0.90;0.65;;;15.70;57.10;;;;;;4986635;28;45162;-69
2023/03/12 11:13:01;;;;;;;0.55;0.40;;;15.70;57.40;;;;;;4986553;28;45414;-69
2023/03/12 11:15:31;;;;;;;1.02;0.50;;;15.80;57.50;;;;;;4986292;28;45543;-70
2023/03/12 11:18:24;;;;;;;1.17;0.40;;;15.80;58.90;;;;;;4986234;28;45181;-69
2023/03/12 11:20:52;;;;;;;0.73;0.52;;;15.80;58.10;;;;;;4986272;28;45218;-69
2023/03/12 11:23:22;;;;;;;0.30;0.30;;;15.80;58.20;;;;;;4986226;28;45561;-69
2023/03/12 11:25:56;;;;;;;0.77;0.50;;;15.80;58.30;;;;;;4986009;28;45259;-69
2023/03/12 11:28:28;;;;;;;1.52;0.40;;;15.80;58.50;;;;;;4985849;28;45775;-70
2023/03/12 11:30:58;;;;;;;0.88;0.55;;;15.80;58.70;;;;;;4986081;28;45398;-69
2023/03/12 11:33:25;;;;;;;0.52;0.50;;;15.80;58.70;;;;;;4988670;28;45097;-70
2023/03/12 11:36:08;;;;;;;1.30;0.63;;;15.80;58.80;;;;;;4989204;28;46807;-70
2023/03/12 11:38:40;;;;;;;1.00;0.50;;;15.80;59.20;;;;;;4989191;28;45145;-70
2023/03/12 11:41:26;;;;;;;1.27;0.50;;;15.80;59.20;;;;;;4989093;28;45172;-69
2023/03/12 11:44:12;;;;;;;1.15;0.57;;;15.80;59.40;;;;;;4989611;28;45393;-69
2023/03/12 11:46:51;;;;;;;2.38;0.70;;;15.80;59.50;;;;;;4988960;28;46295;-69
2023/03/12 11:49:29;;;;;;;3.38;1.10;;;15.80;59.80;;;;;;4989040;28;45252;-69
2023/03/12 11:52:04;;;;;;;1.05;0.60;;;15.80;60.00;;;;;;4989139;28;45161;-69
2023/03/12 11:55:00;;;;;;;1.33;0.50;;;15.80;60.00;;;;;;4986537;28;45217;-70
2023/03/12 11:57:37;;;;;;;1.27;0.60;;;15.80;60.30;;;;;;4989147;28;45493;-69
2023/03/12 12:00:12;;;;;;;0.77;0.40;;;15.80;60.10;;;;;;4989225;28;45269;-69
2023/03/12 12:03:04;;;;;;;1.30;0.60;;;15.80;60.10;;;;;;4989013;28;45271;-69
2023/03/12 12:05:38;;;;;;;0.60;0.50;;;15.80;60.60;;;;;;4988932;28;45222;-69
2023/03/12 12:08:22;;;;;;;2.05;0.95;;;15.80;60.50;;;;;;4988963;28;45503;-69
2023/03/12 12:10:56;;;;;;;2.40;0.60;;;15.80;60.50;;;;;;4989075;28;45129;-69
2023/03/12 12:13:32;;;;;;;1.48;0.50;;;15.90;60.80;;;;;;4989064;28;45097;-69
2023/03/12 12:16:09;;;;;;;1.85;0.80;;;15.90;60.80;;;;;;4988752;28;45583;-69
2023/03/12 12:18:48;;;;;;;2.05;0.65;;;15.90;61.00;;;;;;4989455;28;45478;-74
2023/03/12 12:21:30;;;;;;;3.50;0.60;;;15.90;60.90;;;;;;4968893;28;45390;-70
2023/03/12 12:24:06;;;;;;;1.15;0.50;;;15.90;60.90;;;;;;4969189;28;45256;-69
2023/03/12 12:26:42;;;;;;;1.73;0.65;;;15.90;61.40;;;;;;4966673;28;45315;-69
2023/03/12 12:29:27;;;;;;;1.00;0.60;;;15.90;61.40;;;;;;4966027;28;46443;-69
2023/03/12 12:31:56;;;;;;;2.20;0.68;;;15.90;61.50;;;;;;4966048;28;45347;-70
2023/03/12 12:34:46;;;;;;;1.92;0.70;;;15.80;62.00;;;;;;4969085;28;45097;-70
2023/03/12 12:37:37;;;;;;;2.22;0.70;;;15.80;62.10;;;;;;4969057;28;45216;-69
2023/03/12 12:40:13;;;;;;;2.05;0.70;;;15.80;62.50;;;;;;4968513;28;48418;-70
2023/03/12 12:42:51;;;;;;;1.38;0.50;;;15.90;62.60;;;;;;4969079;28;45333;-70
2023/03/12 12:45:21;;;;;;;0.88;0.40;;;15.90;62.40;;;;;;4967914;28;45316;-69
2023/03/12 12:47:53;;;;;;;1.38;0.50;;;15.90;62.30;;;;;;4968876;28;45411;-69
2023/03/12 12:50:22;;;;;;;1.13;0.60;;;16.00;62.40;;;;;;4982135;28;46275;-69
2023/03/12 12:52:57;;;;;;;1.73;0.70;;;15.90;62.00;;;;;;4988303;28;45137;-69
2023/03/12 12:55:29;;;;;;;1.83;0.50;;;15.90;62.00;;;;;;4988415;28;45215;-69
2023/03/12 12:57:59;;;;;;;3.63;0.70;;;16.00;62.00;;;;;;4988415;28;45105;-69
2023/03/12 13:00:40;;;;;;;2.30;0.63;;;16.00;62.20;;;;;;4987801;28;46247;-69